sensor_id;sensor_type;location;lat;lon;timestamp;P1;durP1;ratioP1;P2;durP2;ratioP2
70850;SDS011;58475;49.662;9.636;2022-09-20T00:01:06;5.20;;;2.22;;
70850;SDS011;58475;49.662;9.636;2022-09-20T00:03:38;5.57;;;2.28;;
70850;SDS011;58475;49.662;9.636;2022-09-20T00:06:05;4.50;;;2.08;;
70850;SDS011;58475;49.662;9.636;2022-09-20T00:08:32;5.93;;;2.20;;
70850;SDS011;58475;49.662;9.636;2022-09-20T00:11:02;5.72;;;2.20;;
70850;SDS011;58475;49.662;9.636;2022-09-20T00:13:29;4.88;;;2.13;;
70850;SDS011;58475;49.662;9.636;2022-09-20T00:15:55;5.07;;;2.20;;
70850;SDS011;58475;49.662;9.636;2022-09-20T00:18:20;4.40;;;2.30;;
70850;SDS011;58475;49.662;9.636;2022-09-20T00:20:47;3.42;;;2.00;;
70850;SDS011;58475;49.662;9.636;2022-09-20T00:23:13;4.65;;;2.10;;
70850;SDS011;58475;49.662;9.636;2022-09-20T00:25:40;4.60;;;2.00;;
70850;SDS011;58475;49.662;9.636;2022-09-20T00:28:06;5.00;;;2.08;;
70850;SDS011;58475;49.662;9.636;2022-09-20T00:30:32;4.40;;;2.00;;
70850;SDS011;58475;49.662;9.636;2022-09-20T00:32:58;4.45;;;2.15;;
70850;SDS011;58475;49.662;9.636;2022-09-20T00:35:24;8.10;;;2.45;;
70850;SDS011;58475;49.662;9.636;2022-09-20T00:37:49;7.50;;;2.45;;
70850;SDS011;58475;49.662;9.636;2022-09-20T00:40:15;4.38;;;2.08;;
70850;SDS011;58475;49.662;9.636;2022-09-20T00:42:44;4.55;;;2.00;;
70850;SDS011;58475;49.662;9.636;2022-09-20T00:45:23;5.32;;;2.28;;
70850;SDS011;58475;49.662;9.636;2022-09-20T00:47:57;4.30;;;2.13;;
70850;SDS011;58475;49.662;9.636;2022-09-20T00:50:39;8.98;;;2.83;;
70850;SDS011;58475;49.662;9.636;2022-09-20T00:53:18;7.82;;;2.85;;
70850;SDS011;58475;49.662;9.636;2022-09-20T00:55:55;5.97;;;2.90;;
70850;SDS011;58475;49.662;9.636;2022-09-20T00:58:24;6.40;;;2.65;;
70850;SDS011;58475;49.662;9.636;2022-09-20T01:00:52;5.85;;;2.50;;
70850;SDS011;58475;49.662;9.636;2022-09-20T01:03:21;5.95;;;2.47;;
70850;SDS011;58475;49.662;9.636;2022-09-20T01:05:52;6.28;;;2.60;;
70850;SDS011;58475;49.662;9.636;2022-09-20T01:08:18;5.95;;;2.20;;
70850;SDS011;58475;49.662;9.636;2022-09-20T01:10:45;5.45;;;2.30;;
70850;SDS011;58475;49.662;9.636;2022-09-20T01:13:11;6.32;;;2.40;;
70850;SDS011;58475;49.662;9.636;2022-09-20T01:15:36;7.00;;;2.25;;
70850;SDS011;58475;49.662;9.636;2022-09-20T01:18:03;4.55;;;2.13;;
70850;SDS011;58475;49.662;9.636;2022-09-20T01:20:32;7.15;;;2.10;;
70850;SDS011;58475;49.662;9.636;2022-09-20T01:28:46;5.30;;;2.17;;
70850;SDS011;58475;49.662;9.636;2022-09-20T01:33:46;6.07;;;2.10;;
70850;SDS011;58475;49.662;9.636;2022-09-20T01:36:19;3.92;;;2.17;;
70850;SDS011;58475;49.662;9.636;2022-09-20T01:38:59;5.88;;;2.33;;
70850;SDS011;58475;49.662;9.636;2022-09-20T01:44:21;8.68;;;2.45;;
70850;SDS011;58475;49.662;9.636;2022-09-20T02:01:44;5.45;;;2.55;;
70850;SDS011;58475;49.662;9.636;2022-09-20T02:04:42;8.30;;;2.38;;
70850;SDS011;58475;49.662;9.636;2022-09-20T02:12:43;5.85;;;2.50;;
70850;SDS011;58475;49.662;9.636;2022-09-20T02:20:42;5.70;;;2.20;;
70850;SDS011;58475;49.662;9.636;2022-09-20T02:23:34;6.22;;;2.65;;
70850;SDS011;58475;49.662;9.636;2022-09-20T02:32:05;3.67;;;2.10;;
70850;SDS011;58475;49.662;9.636;2022-09-20T02:43:24;4.93;;;2.30;;
70850;SDS011;58475;49.662;9.636;2022-09-20T02:49:20;5.55;;;2.30;;
70850;SDS011;58475;49.662;9.636;2022-09-20T02:51:41;5.20;;;2.30;;
70850;SDS011;58475;49.662;9.636;2022-09-20T03:00:05;3.85;;;2.22;;
70850;SDS011;58475;49.662;9.636;2022-09-20T03:02:39;5.93;;;2.30;;
70850;SDS011;58475;49.662;9.636;2022-09-20T03:05:21;3.45;;;1.90;;
70850;SDS011;58475;49.662;9.636;2022-09-20T03:10:53;7.18;;;2.40;;
70850;SDS011;58475;49.662;9.636;2022-09-20T03:19:23;3.42;;;1.92;;
70850;SDS011;58475;49.662;9.636;2022-09-20T03:33:20;5.93;;;2.10;;
70850;SDS011;58475;49.662;9.636;2022-09-20T03:44:53;3.72;;;1.95;;
70850;SDS011;58475;49.662;9.636;2022-09-20T04:01:22;7.22;;;3.08;;
70850;SDS011;58475;49.662;9.636;2022-09-20T04:04:06;5.82;;;3.10;;
70850;SDS011;58475;49.662;9.636;2022-09-20T04:09:24;7.57;;;3.10;;
70850;SDS011;58475;49.662;9.636;2022-09-20T04:12:05;7.35;;;3.10;;
70850;SDS011;58475;49.662;9.636;2022-09-20T04:14:46;7.10;;;2.70;;
70850;SDS011;58475;49.662;9.636;2022-09-20T04:17:22;4.55;;;2.40;;
70850;SDS011;58475;49.662;9.636;2022-09-20T04:20:10;6.57;;;2.40;;
70850;SDS011;58475;49.662;9.636;2022-09-20T04:22:41;5.47;;;2.22;;
70850;SDS011;58475;49.662;9.636;2022-09-20T04:25:16;5.47;;;2.03;;
70850;SDS011;58475;49.662;9.636;2022-09-20T04:27:53;4.28;;;2.10;;
70850;SDS011;58475;49.662;9.636;2022-09-20T04:30:24;6.72;;;2.83;;
70850;SDS011;58475;49.662;9.636;2022-09-20T04:38:21;6.38;;;2.75;;
70850;SDS011;58475;49.662;9.636;2022-09-20T05:00:55;7.90;;;2.47;;
70850;SDS011;58475;49.662;9.636;2022-09-20T05:11:54;6.97;;;2.58;;
70850;SDS011;58475;49.662;9.636;2022-09-20T05:17:21;4.65;;;2.42;;
70850;SDS011;58475;49.662;9.636;2022-09-20T05:20:01;8.15;;;2.72;;
70850;SDS011;58475;49.662;9.636;2022-09-20T05:42:05;5.60;;;2.80;;
70850;SDS011;58475;49.662;9.636;2022-09-20T05:44:49;10.65;;;2.85;;
70850;SDS011;58475;49.662;9.636;2022-09-20T05:58:52;11.15;;;2.63;;
70850;SDS011;58475;49.662;9.636;2022-09-20T06:03:49;5.00;;;2.90;;
70850;SDS011;58475;49.662;9.636;2022-09-20T06:06:21;6.00;;;2.47;;
70850;SDS011;58475;49.662;9.636;2022-09-20T06:16:52;4.88;;;2.70;;
70850;SDS011;58475;49.662;9.636;2022-09-20T06:19:44;5.07;;;2.95;;
70850;SDS011;58475;49.662;9.636;2022-09-20T06:22:21;8.27;;;3.53;;
70850;SDS011;58475;49.662;9.636;2022-09-20T06:24:54;6.20;;;3.17;;
70850;SDS011;58475;49.662;9.636;2022-09-20T06:27:27;5.22;;;3.17;;
70850;SDS011;58475;49.662;9.636;2022-09-20T06:29:57;7.55;;;4.10;;
70850;SDS011;58475;49.662;9.636;2022-09-20T06:32:25;6.75;;;4.57;;
70850;SDS011;58475;49.662;9.636;2022-09-20T06:34:51;8.85;;;4.32;;
70850;SDS011;58475;49.662;9.636;2022-09-20T06:40:27;8.23;;;3.70;;
70850;SDS011;58475;49.662;9.636;2022-09-20T06:43:14;9.32;;;3.40;;
70850;SDS011;58475;49.662;9.636;2022-09-20T06:45:40;10.02;;;4.40;;
70850;SDS011;58475;49.662;9.636;2022-09-20T06:48:06;8.77;;;5.43;;
70850;SDS011;58475;49.662;9.636;2022-09-20T06:50:36;6.93;;;4.13;;
70850;SDS011;58475;49.662;9.636;2022-09-20T06:53:01;9.02;;;4.47;;
70850;SDS011;58475;49.662;9.636;2022-09-20T06:55:28;8.68;;;3.90;;
70850;SDS011;58475;49.662;9.636;2022-09-20T06:57:56;6.93;;;3.60;;
70850;SDS011;58475;49.662;9.636;2022-09-20T07:00:21;9.27;;;3.80;;
70850;SDS011;58475;49.662;9.636;2022-09-20T07:02:47;8.07;;;3.83;;
70850;SDS011;58475;49.662;9.636;2022-09-20T07:05:13;7.47;;;4.53;;
70850;SDS011;58475;49.662;9.636;2022-09-20T07:07:40;8.68;;;4.32;;
70850;SDS011;58475;49.662;9.636;2022-09-20T07:10:07;8.70;;;3.70;;
70850;SDS011;58475;49.662;9.636;2022-09-20T07:12:33;8.82;;;3.97;;
70850;SDS011;58475;49.662;9.636;2022-09-20T07:14:59;8.23;;;3.70;;
70850;SDS011;58475;49.662;9.636;2022-09-20T07:17:24;7.45;;;3.63;;
70850;SDS011;58475;49.662;9.636;2022-09-20T07:19:49;7.53;;;4.00;;
70850;SDS011;58475;49.662;9.636;2022-09-20T07:22:15;11.60;;;3.92;;
70850;SDS011;58475;49.662;9.636;2022-09-20T07:24:41;7.05;;;3.90;;
70850;SDS011;58475;49.662;9.636;2022-09-20T07:27:06;10.07;;;4.40;;
70850;SDS011;58475;49.662;9.636;2022-09-20T07:29:31;10.63;;;4.70;;
70850;SDS011;58475;49.662;9.636;2022-09-20T07:31:59;8.35;;;4.40;;
70850;SDS011;58475;49.662;9.636;2022-09-20T07:34:24;7.07;;;4.00;;
70850;SDS011;58475;49.662;9.636;2022-09-20T07:36:51;8.20;;;3.53;;
70850;SDS011;58475;49.662;9.636;2022-09-20T07:39:16;8.32;;;3.50;;
70850;SDS011;58475;49.662;9.636;2022-09-20T07:41:42;8.43;;;3.33;;
70850;SDS011;58475;49.662;9.636;2022-09-20T07:44:12;5.78;;;3.20;;
70850;SDS011;58475;49.662;9.636;2022-09-20T07:46:55;7.20;;;2.80;;
70850;SDS011;58475;49.662;9.636;2022-09-20T07:49:22;8.15;;;2.85;;
70850;SDS011;58475;49.662;9.636;2022-09-20T07:51:48;7.55;;;3.10;;
70850;SDS011;58475;49.662;9.636;2022-09-20T07:54:14;8.85;;;3.17;;
70850;SDS011;58475;49.662;9.636;2022-09-20T07:56:40;9.30;;;3.20;;
70850;SDS011;58475;49.662;9.636;2022-09-20T07:59:06;7.75;;;3.00;;
70850;SDS011;58475;49.662;9.636;2022-09-20T08:01:31;6.25;;;2.70;;
70850;SDS011;58475;49.662;9.636;2022-09-20T08:03:57;8.55;;;2.13;;
70850;SDS011;58475;49.662;9.636;2022-09-20T08:06:22;11.85;;;2.50;;
70850;SDS011;58475;49.662;9.636;2022-09-20T08:08:48;6.25;;;2.30;;
70850;SDS011;58475;49.662;9.636;2022-09-20T08:11:17;8.93;;;2.40;;
70850;SDS011;58475;49.662;9.636;2022-09-20T08:13:48;7.90;;;2.65;;
70850;SDS011;58475;49.662;9.636;2022-09-20T08:16:14;8.27;;;2.22;;
70850;SDS011;58475;49.662;9.636;2022-09-20T08:18:44;7.68;;;2.20;;
70850;SDS011;58475;49.662;9.636;2022-09-20T08:21:14;7.85;;;2.40;;
70850;SDS011;58475;49.662;9.636;2022-09-20T08:23:41;6.50;;;2.50;;
70850;SDS011;58475;49.662;9.636;2022-09-20T08:26:09;7.70;;;2.63;;
70850;SDS011;58475;49.662;9.636;2022-09-20T08:28:37;11.98;;;2.60;;
70850;SDS011;58475;49.662;9.636;2022-09-20T08:31:06;7.38;;;2.33;;
70850;SDS011;58475;49.662;9.636;2022-09-20T08:33:35;7.20;;;2.50;;
70850;SDS011;58475;49.662;9.636;2022-09-20T08:36:12;7.47;;;2.50;;
70850;SDS011;58475;49.662;9.636;2022-09-20T08:38:39;9.63;;;2.20;;
70850;SDS011;58475;49.662;9.636;2022-09-20T08:41:06;7.30;;;2.33;;
70850;SDS011;58475;49.662;9.636;2022-09-20T08:43:53;6.07;;;2.42;;
70850;SDS011;58475;49.662;9.636;2022-09-20T08:46:23;8.65;;;2.35;;
70850;SDS011;58475;49.662;9.636;2022-09-20T08:48:52;8.68;;;2.60;;
70850;SDS011;58475;49.662;9.636;2022-09-20T08:51:18;10.57;;;2.42;;
70850;SDS011;58475;49.662;9.636;2022-09-20T08:53:47;7.38;;;2.40;;
70850;SDS011;58475;49.662;9.636;2022-09-20T08:56:14;7.47;;;2.50;;
70850;SDS011;58475;49.662;9.636;2022-09-20T08:58:40;5.50;;;2.30;;
70850;SDS011;58475;49.662;9.636;2022-09-20T09:01:06;5.35;;;2.35;;
70850;SDS011;58475;49.662;9.636;2022-09-20T09:03:45;7.72;;;2.30;;
70850;SDS011;58475;49.662;9.636;2022-09-20T09:06:11;7.68;;;2.38;;
70850;SDS011;58475;49.662;9.636;2022-09-20T09:08:39;6.65;;;2.22;;
70850;SDS011;58475;49.662;9.636;2022-09-20T09:11:11;7.70;;;2.80;;
70850;SDS011;58475;49.662;9.636;2022-09-20T09:13:49;6.13;;;2.33;;
70850;SDS011;58475;49.662;9.636;2022-09-20T09:16:18;8.07;;;2.45;;
70850;SDS011;58475;49.662;9.636;2022-09-20T09:18:46;9.88;;;2.97;;
70850;SDS011;58475;49.662;9.636;2022-09-20T09:21:19;8.50;;;2.70;;
70850;SDS011;58475;49.662;9.636;2022-09-20T09:26:26;6.45;;;2.30;;
70850;SDS011;58475;49.662;9.636;2022-09-20T09:31:34;8.85;;;2.63;;
70850;SDS011;58475;49.662;9.636;2022-09-20T09:34:01;6.72;;;2.30;;
70850;SDS011;58475;49.662;9.636;2022-09-20T09:36:26;7.00;;;2.50;;
70850;SDS011;58475;49.662;9.636;2022-09-20T09:41:48;5.68;;;2.30;;
70850;SDS011;58475;49.662;9.636;2022-09-20T09:44:25;6.85;;;2.50;;
70850;SDS011;58475;49.662;9.636;2022-09-20T09:46:52;4.18;;;1.98;;
70850;SDS011;58475;49.662;9.636;2022-09-20T09:49:23;7.25;;;2.25;;
70850;SDS011;58475;49.662;9.636;2022-09-20T09:54:19;6.30;;;2.20;;
70850;SDS011;58475;49.662;9.636;2022-09-20T09:56:51;7.03;;;2.20;;
70850;SDS011;58475;49.662;9.636;2022-09-20T10:04:52;10.77;;;2.42;;
70850;SDS011;58475;49.662;9.636;2022-09-20T10:10:29;6.32;;;1.90;;
70850;SDS011;58475;49.662;9.636;2022-09-20T10:16:02;6.70;;;2.08;;
70850;SDS011;58475;49.662;9.636;2022-09-20T10:18:51;8.25;;;2.00;;
70850;SDS011;58475;49.662;9.636;2022-09-20T10:21:31;7.88;;;2.08;;
70850;SDS011;58475;49.662;9.636;2022-09-20T10:30:06;8.50;;;2.53;;
70850;SDS011;58475;49.662;9.636;2022-09-20T10:37:46;8.27;;;3.10;;
70850;SDS011;58475;49.662;9.636;2022-09-20T10:43:59;8.50;;;2.20;;
70850;SDS011;58475;49.662;9.636;2022-09-20T10:46:37;6.18;;;2.03;;
70850;SDS011;58475;49.662;9.636;2022-09-20T10:52:15;4.70;;;2.00;;
70850;SDS011;58475;49.662;9.636;2022-09-20T10:54:57;4.72;;;1.80;;
70850;SDS011;58475;49.662;9.636;2022-09-20T11:06:13;8.40;;;2.20;;
70850;SDS011;58475;49.662;9.636;2022-09-20T11:08:51;4.45;;;1.85;;
70850;SDS011;58475;49.662;9.636;2022-09-20T11:11:24;8.43;;;2.40;;
70850;SDS011;58475;49.662;9.636;2022-09-20T11:16:38;5.55;;;2.10;;
70850;SDS011;58475;49.662;9.636;2022-09-20T11:22:31;6.38;;;1.92;;
70850;SDS011;58475;49.662;9.636;2022-09-20T11:27:41;6.55;;;1.70;;
70850;SDS011;58475;49.662;9.636;2022-09-20T11:30:14;5.70;;;1.90;;
70850;SDS011;58475;49.662;9.636;2022-09-20T11:35:47;7.45;;;2.30;;
70850;SDS011;58475;49.662;9.636;2022-09-20T11:38:31;6.53;;;1.70;;
70850;SDS011;58475;49.662;9.636;2022-09-20T11:41:10;5.20;;;1.77;;
70850;SDS011;58475;49.662;9.636;2022-09-20T11:43:40;4.93;;;1.90;;
70850;SDS011;58475;49.662;9.636;2022-09-20T11:46:08;3.92;;;1.80;;
70850;SDS011;58475;49.662;9.636;2022-09-20T11:48:45;6.50;;;1.88;;
70850;SDS011;58475;49.662;9.636;2022-09-20T11:54:06;6.15;;;2.03;;
70850;SDS011;58475;49.662;9.636;2022-09-20T11:56:34;6.65;;;2.22;;
70850;SDS011;58475;49.662;9.636;2022-09-20T11:59:04;5.15;;;1.70;;
70850;SDS011;58475;49.662;9.636;2022-09-20T12:03:58;4.65;;;1.80;;
70850;SDS011;58475;49.662;9.636;2022-09-20T12:06:30;6.65;;;1.90;;
70850;SDS011;58475;49.662;9.636;2022-09-20T12:08:59;4.57;;;1.90;;
70850;SDS011;58475;49.662;9.636;2022-09-20T12:11:29;4.25;;;1.63;;
70850;SDS011;58475;49.662;9.636;2022-09-20T12:14:02;4.80;;;1.67;;
70850;SDS011;58475;49.662;9.636;2022-09-20T12:16:40;5.43;;;1.90;;
70850;SDS011;58475;49.662;9.636;2022-09-20T12:26:57;2.03;;;1.40;;
70850;SDS011;58475;49.662;9.636;2022-09-20T12:31:54;2.58;;;1.38;;
70850;SDS011;58475;49.662;9.636;2022-09-20T12:39:16;3.50;;;1.85;;
70850;SDS011;58475;49.662;9.636;2022-09-20T12:47:06;5.20;;;2.00;;
70850;SDS011;58475;49.662;9.636;2022-09-20T12:49:51;6.15;;;2.70;;
70850;SDS011;58475;49.662;9.636;2022-09-20T13:08:30;6.38;;;2.20;;
70850;SDS011;58475;49.662;9.636;2022-09-20T13:13:38;3.63;;;1.60;;
70850;SDS011;58475;49.662;9.636;2022-09-20T13:16:06;3.63;;;1.80;;
70850;SDS011;58475;49.662;9.636;2022-09-20T13:19:17;5.03;;;1.80;;
70850;SDS011;58475;49.662;9.636;2022-09-20T13:24:29;4.50;;;1.70;;
70850;SDS011;58475;49.662;9.636;2022-09-20T13:27:02;4.20;;;2.00;;
70850;SDS011;58475;49.662;9.636;2022-09-20T13:29:41;4.82;;;2.00;;
70850;SDS011;58475;49.662;9.636;2022-09-20T13:37:33;3.33;;;1.50;;
70850;SDS011;58475;49.662;9.636;2022-09-20T13:40:01;4.95;;;1.73;;
70850;SDS011;58475;49.662;9.636;2022-09-20T13:42:27;4.75;;;1.58;;
70850;SDS011;58475;49.662;9.636;2022-09-20T13:44:54;7.57;;;1.75;;
70850;SDS011;58475;49.662;9.636;2022-09-20T13:50:01;7.43;;;1.70;;
70850;SDS011;58475;49.662;9.636;2022-09-20T13:52:42;3.70;;;1.55;;
70850;SDS011;58475;49.662;9.636;2022-09-20T13:55:29;4.97;;;1.60;;
70850;SDS011;58475;49.662;9.636;2022-09-20T13:57:58;6.15;;;1.80;;
70850;SDS011;58475;49.662;9.636;2022-09-20T14:00:27;3.72;;;1.70;;
70850;SDS011;58475;49.662;9.636;2022-09-20T14:02:53;4.30;;;1.70;;
70850;SDS011;58475;49.662;9.636;2022-09-20T14:05:20;4.47;;;1.60;;
70850;SDS011;58475;49.662;9.636;2022-09-20T14:07:49;3.90;;;1.80;;
70850;SDS011;58475;49.662;9.636;2022-09-20T14:10:25;4.25;;;2.05;;
70850;SDS011;58475;49.662;9.636;2022-09-20T14:12:54;5.32;;;1.73;;
70850;SDS011;58475;49.662;9.636;2022-09-20T14:15:21;5.70;;;1.70;;
70850;SDS011;58475;49.662;9.636;2022-09-20T14:17:47;5.50;;;1.88;;
70850;SDS011;58475;49.662;9.636;2022-09-20T14:20:13;5.53;;;1.83;;
70850;SDS011;58475;49.662;9.636;2022-09-20T14:22:41;5.88;;;2.53;;
70850;SDS011;58475;49.662;9.636;2022-09-20T14:27:36;5.53;;;2.00;;
70850;SDS011;58475;49.662;9.636;2022-09-20T14:30:02;5.30;;;1.90;;
70850;SDS011;58475;49.662;9.636;2022-09-20T14:32:33;4.80;;;1.80;;
70850;SDS011;58475;49.662;9.636;2022-09-20T14:35:16;5.03;;;1.85;;
70850;SDS011;58475;49.662;9.636;2022-09-20T14:37:44;7.53;;;2.10;;
70850;SDS011;58475;49.662;9.636;2022-09-20T14:42:51;5.90;;;1.70;;
70850;SDS011;58475;49.662;9.636;2022-09-20T14:45:20;7.28;;;1.90;;
70850;SDS011;58475;49.662;9.636;2022-09-20T14:47:53;5.18;;;1.60;;
70850;SDS011;58475;49.662;9.636;2022-09-20T14:50:22;4.03;;;1.50;;
70850;SDS011;58475;49.662;9.636;2022-09-20T14:52:57;3.50;;;1.60;;
70850;SDS011;58475;49.662;9.636;2022-09-20T14:55:24;6.80;;;1.77;;
70850;SDS011;58475;49.662;9.636;2022-09-20T14:57:55;5.80;;;1.92;;
70850;SDS011;58475;49.662;9.636;2022-09-20T15:00:27;5.32;;;1.88;;
70850;SDS011;58475;49.662;9.636;2022-09-20T15:02:53;6.68;;;1.92;;
70850;SDS011;58475;49.662;9.636;2022-09-20T15:05:22;5.15;;;1.60;;
70850;SDS011;58475;49.662;9.636;2022-09-20T15:07:54;3.78;;;1.40;;
70850;SDS011;58475;49.662;9.636;2022-09-20T15:10:20;3.53;;;1.23;;
70850;SDS011;58475;49.662;9.636;2022-09-20T15:12:46;3.60;;;1.33;;
70850;SDS011;58475;49.662;9.636;2022-09-20T15:15:13;3.25;;;1.45;;
70850;SDS011;58475;49.662;9.636;2022-09-20T15:17:40;3.72;;;1.30;;
70850;SDS011;58475;49.662;9.636;2022-09-20T15:20:13;4.18;;;1.30;;
70850;SDS011;58475;49.662;9.636;2022-09-20T15:22:45;2.55;;;1.20;;
70850;SDS011;58475;49.662;9.636;2022-09-20T15:25:14;3.88;;;1.15;;
70850;SDS011;58475;49.662;9.636;2022-09-20T15:27:42;3.38;;;1.27;;
70850;SDS011;58475;49.662;9.636;2022-09-20T15:30:10;2.20;;;1.20;;
70850;SDS011;58475;49.662;9.636;2022-09-20T15:32:37;2.70;;;1.13;;
70850;SDS011;58475;49.662;9.636;2022-09-20T15:35:03;3.13;;;1.20;;
70850;SDS011;58475;49.662;9.636;2022-09-20T15:37:28;2.85;;;1.20;;
70850;SDS011;58475;49.662;9.636;2022-09-20T15:39:54;2.58;;;1.20;;
70850;SDS011;58475;49.662;9.636;2022-09-20T15:42:19;2.63;;;1.30;;
70850;SDS011;58475;49.662;9.636;2022-09-20T15:44:47;2.03;;;1.10;;
70850;SDS011;58475;49.662;9.636;2022-09-20T15:47:15;3.25;;;1.20;;
70850;SDS011;58475;49.662;9.636;2022-09-20T15:49:40;3.75;;;1.20;;
70850;SDS011;58475;49.662;9.636;2022-09-20T15:52:06;5.63;;;1.55;;
70850;SDS011;58475;49.662;9.636;2022-09-20T15:54:31;2.38;;;1.30;;
70850;SDS011;58475;49.662;9.636;2022-09-20T15:56:57;1.90;;;1.20;;
70850;SDS011;58475;49.662;9.636;2022-09-20T15:59:22;4.32;;;1.35;;
70850;SDS011;58475;49.662;9.636;2022-09-20T16:01:48;2.03;;;1.15;;
70850;SDS011;58475;49.662;9.636;2022-09-20T16:04:17;2.78;;;1.35;;
70850;SDS011;58475;49.662;9.636;2022-09-20T16:06:44;4.82;;;1.42;;
70850;SDS011;58475;49.662;9.636;2022-09-20T16:09:11;3.75;;;1.27;;
70850;SDS011;58475;49.662;9.636;2022-09-20T16:11:38;6.53;;;1.58;;
70850;SDS011;58475;49.662;9.636;2022-09-20T16:14:04;3.78;;;1.50;;
70850;SDS011;58475;49.662;9.636;2022-09-20T16:16:30;3.03;;;1.40;;
70850;SDS011;58475;49.662;9.636;2022-09-20T16:18:57;5.22;;;1.75;;
70850;SDS011;58475;49.662;9.636;2022-09-20T16:21:41;4.70;;;1.50;;
70850;SDS011;58475;49.662;9.636;2022-09-20T16:24:08;6.20;;;2.20;;
70850;SDS011;58475;49.662;9.636;2022-09-20T16:26:34;7.82;;;3.15;;
70850;SDS011;58475;49.662;9.636;2022-09-20T16:29:00;6.13;;;3.20;;
70850;SDS011;58475;49.662;9.636;2022-09-20T16:34:15;6.13;;;3.10;;
70850;SDS011;58475;49.662;9.636;2022-09-20T16:36:53;6.72;;;2.47;;
70850;SDS011;58475;49.662;9.636;2022-09-20T16:39:20;5.32;;;2.63;;
70850;SDS011;58475;49.662;9.636;2022-09-20T16:41:52;7.30;;;2.95;;
70850;SDS011;58475;49.662;9.636;2022-09-20T16:44:21;7.82;;;2.70;;
70850;SDS011;58475;49.662;9.636;2022-09-20T16:46:46;7.03;;;2.30;;
70850;SDS011;58475;49.662;9.636;2022-09-20T16:49:12;7.97;;;2.20;;
70850;SDS011;58475;49.662;9.636;2022-09-20T16:51:39;7.82;;;2.65;;
70850;SDS011;58475;49.662;9.636;2022-09-20T16:54:06;6.40;;;2.80;;
70850;SDS011;58475;49.662;9.636;2022-09-20T16:56:34;5.95;;;2.47;;
70850;SDS011;58475;49.662;9.636;2022-09-20T16:59:00;7.95;;;3.80;;
70850;SDS011;58475;49.662;9.636;2022-09-20T17:01:26;7.20;;;4.07;;
70850;SDS011;58475;49.662;9.636;2022-09-20T17:03:53;8.00;;;3.10;;
70850;SDS011;58475;49.662;9.636;2022-09-20T17:06:18;7.35;;;2.97;;
70850;SDS011;58475;49.662;9.636;2022-09-20T17:08:44;5.38;;;2.35;;
70850;SDS011;58475;49.662;9.636;2022-09-20T17:11:15;7.43;;;2.50;;
70850;SDS011;58475;49.662;9.636;2022-09-20T17:13:44;7.07;;;2.90;;
70850;SDS011;58475;49.662;9.636;2022-09-20T17:16:14;7.07;;;2.67;;
70850;SDS011;58475;49.662;9.636;2022-09-20T17:18:41;6.70;;;2.70;;
70850;SDS011;58475;49.662;9.636;2022-09-20T17:21:10;6.00;;;2.40;;
70850;SDS011;58475;49.662;9.636;2022-09-20T17:23:39;6.32;;;2.70;;
70850;SDS011;58475;49.662;9.636;2022-09-20T17:26:07;4.95;;;2.13;;
70850;SDS011;58475;49.662;9.636;2022-09-20T17:28:36;5.57;;;2.20;;
70850;SDS011;58475;49.662;9.636;2022-09-20T17:31:04;3.75;;;2.03;;
70850;SDS011;58475;49.662;9.636;2022-09-20T17:33:33;6.20;;;1.90;;
70850;SDS011;58475;49.662;9.636;2022-09-20T17:36:00;4.75;;;1.85;;
70850;SDS011;58475;49.662;9.636;2022-09-20T17:38:28;5.00;;;1.80;;
70850;SDS011;58475;49.662;9.636;2022-09-20T17:41:03;4.13;;;1.77;;
70850;SDS011;58475;49.662;9.636;2022-09-20T17:43:33;5.20;;;1.90;;
70850;SDS011;58475;49.662;9.636;2022-09-20T17:46:16;4.18;;;1.85;;
70850;SDS011;58475;49.662;9.636;2022-09-20T17:48:52;3.35;;;1.60;;
70850;SDS011;58475;49.662;9.636;2022-09-20T17:53:46;6.15;;;2.28;;
70850;SDS011;58475;49.662;9.636;2022-09-20T17:56:12;4.00;;;2.17;;
70850;SDS011;58475;49.662;9.636;2022-09-20T17:58:39;4.88;;;2.15;;
70850;SDS011;58475;49.662;9.636;2022-09-20T18:01:06;9.88;;;4.85;;
70850;SDS011;58475;49.662;9.636;2022-09-20T18:03:38;10.52;;;5.40;;
70850;SDS011;58475;49.662;9.636;2022-09-20T18:06:15;11.03;;;5.23;;
70850;SDS011;58475;49.662;9.636;2022-09-20T18:08:52;7.93;;;3.90;;
70850;SDS011;58475;49.662;9.636;2022-09-20T18:11:21;5.28;;;2.10;;
70850;SDS011;58475;49.662;9.636;2022-09-20T18:13:51;6.97;;;2.80;;
70850;SDS011;58475;49.662;9.636;2022-09-20T18:16:16;7.18;;;2.40;;
70850;SDS011;58475;49.662;9.636;2022-09-20T18:18:42;7.05;;;2.42;;
70850;SDS011;58475;49.662;9.636;2022-09-20T18:21:14;4.75;;;2.03;;
70850;SDS011;58475;49.662;9.636;2022-09-20T18:23:42;2.53;;;1.48;;
70850;SDS011;58475;49.662;9.636;2022-09-20T18:26:12;4.90;;;1.90;;
70850;SDS011;58475;49.662;9.636;2022-09-20T18:28:57;9.32;;;4.03;;
70850;SDS011;58475;49.662;9.636;2022-09-20T18:34:08;6.70;;;3.40;;
70850;SDS011;58475;49.662;9.636;2022-09-20T18:36:39;8.93;;;3.42;;
70850;SDS011;58475;49.662;9.636;2022-09-20T18:39:05;4.05;;;2.00;;
70850;SDS011;58475;49.662;9.636;2022-09-20T18:41:31;3.80;;;1.85;;
70850;SDS011;58475;49.662;9.636;2022-09-20T18:44:02;3.65;;;1.95;;
70850;SDS011;58475;49.662;9.636;2022-09-20T18:46:29;6.22;;;2.10;;
70850;SDS011;58475;49.662;9.636;2022-09-20T18:48:56;4.45;;;1.90;;
70850;SDS011;58475;49.662;9.636;2022-09-20T18:51:25;5.18;;;2.00;;
70850;SDS011;58475;49.662;9.636;2022-09-20T18:53:54;3.58;;;1.65;;
70850;SDS011;58475;49.662;9.636;2022-09-20T18:58:46;3.15;;;1.60;;
70850;SDS011;58475;49.662;9.636;2022-09-20T19:06:43;3.22;;;1.67;;
70850;SDS011;58475;49.662;9.636;2022-09-20T19:09:22;2.38;;;1.50;;
70850;SDS011;58475;49.662;9.636;2022-09-20T19:11:54;3.72;;;1.80;;
70850;SDS011;58475;49.662;9.636;2022-09-20T19:14:30;6.78;;;1.70;;
70850;SDS011;58475;49.662;9.636;2022-09-20T19:16:59;3.75;;;1.80;;
70850;SDS011;58475;49.662;9.636;2022-09-20T19:22:14;4.15;;;1.88;;
70850;SDS011;58475;49.662;9.636;2022-09-20T19:25:00;4.10;;;2.00;;
70850;SDS011;58475;49.662;9.636;2022-09-20T19:27:28;3.88;;;1.80;;
70850;SDS011;58475;49.662;9.636;2022-09-20T19:29:53;7.20;;;3.42;;
70850;SDS011;58475;49.662;9.636;2022-09-20T19:32:19;4.53;;;1.95;;
70850;SDS011;58475;49.662;9.636;2022-09-20T19:34:50;3.95;;;1.90;;
70850;SDS011;58475;49.662;9.636;2022-09-20T19:40:19;3.20;;;1.73;;
70850;SDS011;58475;49.662;9.636;2022-09-20T19:45:38;3.08;;;1.70;;
70850;SDS011;58475;49.662;9.636;2022-09-20T19:50:49;4.55;;;1.88;;
70850;SDS011;58475;49.662;9.636;2022-09-20T19:53:17;4.00;;;1.98;;
70850;SDS011;58475;49.662;9.636;2022-09-20T19:55:47;6.38;;;2.05;;
70850;SDS011;58475;49.662;9.636;2022-09-20T19:58:24;5.03;;;2.13;;
70850;SDS011;58475;49.662;9.636;2022-09-20T20:00:50;4.78;;;2.17;;
70850;SDS011;58475;49.662;9.636;2022-09-20T20:03:16;5.75;;;2.40;;
70850;SDS011;58475;49.662;9.636;2022-09-20T20:06:02;7.07;;;3.10;;
70850;SDS011;58475;49.662;9.636;2022-09-20T20:08:38;6.70;;;2.83;;
70850;SDS011;58475;49.662;9.636;2022-09-20T20:11:27;6.18;;;2.67;;
70850;SDS011;58475;49.662;9.636;2022-09-20T20:16:34;6.72;;;3.20;;
70850;SDS011;58475;49.662;9.636;2022-09-20T20:21:52;6.35;;;3.17;;
70850;SDS011;58475;49.662;9.636;2022-09-20T20:24:35;6.40;;;3.00;;
70850;SDS011;58475;49.662;9.636;2022-09-20T20:27:09;5.50;;;2.80;;
70850;SDS011;58475;49.662;9.636;2022-09-20T20:29:34;7.43;;;2.88;;
70850;SDS011;58475;49.662;9.636;2022-09-20T20:32:00;8.68;;;3.00;;
70850;SDS011;58475;49.662;9.636;2022-09-20T20:34:25;6.93;;;2.70;;
70850;SDS011;58475;49.662;9.636;2022-09-20T20:36:51;5.65;;;2.80;;
70850;SDS011;58475;49.662;9.636;2022-09-20T20:39:24;7.93;;;2.80;;
70850;SDS011;58475;49.662;9.636;2022-09-20T20:41:49;6.88;;;3.28;;
70850;SDS011;58475;49.662;9.636;2022-09-20T20:44:16;6.82;;;3.33;;
70850;SDS011;58475;49.662;9.636;2022-09-20T20:46:46;7.15;;;3.53;;
70850;SDS011;58475;49.662;9.636;2022-09-20T20:49:12;7.35;;;3.67;;